Time;durP1;ratioP1;P1;durP2;ratioP2;P2;SDS_P1;SDS_P2;PMS_P1;PMS_P2;Temp;Humidity;BMP_temperature;BMP_pressure;BME280_temperature;BME280_humidity;BME280_pressure;Samples;Min_cycle;Max_cycle;Signal;HPM_P1;HPM_P2
2022/03/28 00:00:09;;;;;;;8.67;3.67;;;4.90;76.60;;;;;;5046495;28;20193;-67
2022/03/28 00:02:37;;;;;;;14.73;3.27;;;4.80;76.40;;;;;;5047710;28;20182;-67
2022/03/28 00:05:03;;;;;;;9.97;4.07;;;4.70;76.40;;;;;;5047388;28;20447;-67
2022/03/28 00:07:29;;;;;;;8.20;3.73;;;4.60;76.60;;;;;;5046853;28;20474;-67
2022/03/28 00:09:54;;;;;;;9.20;3.10;;;4.50;77.00;;;;;;5046833;28;20432;-67
2022/03/28 00:12:20;;;;;;;12.10;3.53;;;4.50;78.00;;;;;;5047158;28;20572;-67
2022/03/28 00:14:45;;;;;;;8.47;4.10;;;4.40;77.50;;;;;;5047308;28;20186;-67
2022/03/28 00:17:11;;;;;;;10.03;3.47;;;4.40;77.90;;;;;;5046915;28;20201;-67
2022/03/28 00:19:37;;;;;;;11.37;3.57;;;4.30;78.10;;;;;;5046342;28;20192;-67
2022/03/28 00:22:02;;;;;;;23.50;3.50;;;4.20;77.90;;;;;;5046974;28;20232;-67
2022/03/28 00:24:28;;;;;;;10.77;3.13;;;4.20;78.20;;;;;;5046694;28;20654;-67
2022/03/28 00:26:55;;;;;;;5.80;3.10;;;4.20;78.20;;;;;;5046900;28;20200;-67
2022/03/28 00:29:21;;;;;;;10.90;2.93;;;4.20;77.80;;;;;;5046679;28;20184;-67
2022/03/28 00:31:47;;;;;;;11.63;4.20;;;4.20;78.20;;;;;;5047140;28;20446;-67
2022/03/28 00:34:15;;;;;;;10.07;3.80;;;4.20;78.60;;;;;;5046074;28;21015;-67
2022/03/28 00:36:41;;;;;;;8.60;3.87;;;4.20;78.20;;;;;;5046652;28;20472;-67
2022/03/28 00:39:07;;;;;;;14.03;3.77;;;4.10;78.10;;;;;;5046024;28;20519;-67
2022/03/28 00:41:33;;;;;;;11.83;4.13;;;4.10;78.70;;;;;;5046805;28;20984;-67
2022/03/28 00:44:00;;;;;;;8.80;3.13;;;4.20;78.90;;;;;;5046601;28;20737;-67
2022/03/28 00:46:26;;;;;;;16.40;4.80;;;4.20;78.10;;;;;;5046697;28;20423;-67
2022/03/28 00:48:53;;;;;;;9.10;3.90;;;4.10;79.40;;;;;;5047283;28;20934;-67
2022/03/28 00:51:21;;;;;;;13.60;4.17;;;4.10;79.30;;;;;;5046327;28;20237;-66
2022/03/28 00:53:46;;;;;;;31.83;4.33;;;4.00;79.70;;;;;;5048522;28;20918;-67
2022/03/28 00:56:14;;;;;;;10.77;4.30;;;4.00;80.00;;;;;;5048967;28;20463;-67
2022/03/28 00:58:39;;;;;;;7.57;3.97;;;4.00;79.70;;;;;;5050459;28;20186;-67
2022/03/28 01:01:05;;;;;;;7.77;2.93;;;4.00;80.60;;;;;;5050244;28;20435;-67
2022/03/28 01:03:31;;;;;;;11.00;4.50;;;3.90;80.60;;;;;;5050788;28;20209;-67
2022/03/28 01:05:56;;;;;;;8.90;3.90;;;4.00;80.60;;;;;;5050227;28;20894;-66
2022/03/28 01:08:23;;;;;;;11.57;4.20;;;3.90;80.80;;;;;;5049368;28;20197;-67
2022/03/28 01:10:52;;;;;;;13.30;5.10;;;3.90;80.80;;;;;;5052731;28;20591;-67
2022/03/28 01:13:18;;;;;;;9.23;4.10;;;3.90;80.60;;;;;;5053859;28;20420;-66
2022/03/28 01:15:44;;;;;;;13.87;3.90;;;3.90;80.80;;;;;;5054733;28;20459;-67
2022/03/28 01:18:11;;;;;;;10.43;3.57;;;3.90;80.90;;;;;;5050605;28;20420;-67
2022/03/28 01:20:39;;;;;;;9.67;3.60;;;3.90;80.50;;;;;;5050733;28;20181;-67
2022/03/28 01:23:06;;;;;;;8.97;4.10;;;3.90;80.30;;;;;;5050171;28;20888;-67
2022/03/28 01:25:31;;;;;;;9.93;4.60;;;3.70;80.00;;;;;;5050645;28;20416;-66
2022/03/28 01:27:59;;;;;;;33.20;5.07;;;3.60;80.20;;;;;;5050884;28;20929;-67
2022/03/28 01:30:26;;;;;;;9.70;3.80;;;3.60;81.20;;;;;;5057899;28;20188;-66
2022/03/28 01:32:53;;;;;;;9.03;4.20;;;3.60;81.70;;;;;;5047890;28;20901;-67
2022/03/28 01:35:25;;;;;;;11.10;3.70;;;3.60;81.20;;;;;;5050516;28;20723;-66
2022/03/28 01:37:50;;;;;;;9.43;3.90;;;3.60;80.40;;;;;;5046403;28;20467;-66
2022/03/28 01:40:16;;;;;;;11.63;4.17;;;3.50;80.10;;;;;;5050301;28;20452;-67
2022/03/28 01:42:42;;;;;;;14.83;4.03;;;3.40;80.00;;;;;;5050792;28;20650;-66
2022/03/28 01:45:08;;;;;;;7.63;3.20;;;3.40;80.40;;;;;;5050794;28;20554;-67
2022/03/28 01:47:34;;;;;;;11.73;4.43;;;3.40;80.50;;;;;;5050057;28;20230;-66
2022/03/28 01:49:59;;;;;;;10.37;4.17;;;3.40;81.40;;;;;;5050184;28;20420;-66
2022/03/28 01:52:25;;;;;;;8.17;4.00;;;3.50;81.90;;;;;;5049267;28;20185;-66
2022/03/28 01:54:51;;;;;;;6.30;3.00;;;3.50;81.90;;;;;;5049962;28;20659;-67
2022/03/28 01:57:16;;;;;;;12.93;4.23;;;3.60;82.00;;;;;;5050217;28;20247;-66
2022/03/28 01:59:42;;;;;;;10.37;5.43;;;3.60;82.20;;;;;;5049408;28;20193;-67
2022/03/28 02:02:07;;;;;;;10.50;4.20;;;3.80;81.70;;;;;;5050059;28;20296;-67
2022/03/28 02:04:33;;;;;;;11.00;4.20;;;3.60;82.00;;;;;;5049078;28;20623;-67
2022/03/28 02:06:59;;;;;;;20.40;4.17;;;3.70;81.70;;;;;;5038655;28;20204;-67
2022/03/28 02:09:25;;;;;;;7.27;3.63;;;3.60;81.90;;;;;;5049368;28;20219;-67
2022/03/28 02:11:50;;;;;;;9.40;3.97;;;3.60;81.80;;;;;;5049803;28;20424;-67
2022/03/28 02:14:16;;;;;;;10.53;3.97;;;3.50;81.90;;;;;;5049448;28;20629;-67
2022/03/28 02:16:41;;;;;;;16.00;4.93;;;3.50;81.60;;;;;;5049566;28;20210;-66
2022/03/28 02:19:07;;;;;;;12.33;5.13;;;3.40;81.60;;;;;;5047647;28;20194;-67
2022/03/28 02:21:33;;;;;;;19.20;4.47;;;3.30;81.60;;;;;;5049170;28;20188;-66
2022/03/28 02:23:59;;;;;;;10.23;4.37;;;3.30;82.10;;;;;;5049062;28;20674;-67
2022/03/28 02:26:25;;;;;;;10.60;3.90;;;3.20;82.50;;;;;;5048934;28;20584;-67
2022/03/28 02:28:51;;;;;;;9.00;4.77;;;3.20;83.00;;;;;;5048775;28;20432;-66
2022/03/28 02:31:16;;;;;;;8.23;3.97;;;3.20;82.80;;;;;;5049458;28;20327;-67
2022/03/28 02:33:44;;;;;;;8.90;4.20;;;3.20;83.20;;;;;;5048679;28;20194;-67
2022/03/28 02:36:10;;;;;;;10.70;4.80;;;3.20;83.10;;;;;;5048517;28;20189;-67
2022/03/28 02:38:35;;;;;;;11.30;3.53;;;3.20;82.60;;;;;;5048194;28;20424;-67
2022/03/28 02:41:02;;;;;;;10.40;4.27;;;3.20;83.20;;;;;;5048911;28;20545;-66
2022/03/28 02:43:27;;;;;;;9.23;3.10;;;3.20;82.80;;;;;;5048504;28;20189;-66
2022/03/28 02:45:53;;;;;;;12.47;4.60;;;3.20;82.70;;;;;;5048797;28;21070;-67
2022/03/28 02:48:18;;;;;;;9.67;3.97;;;3.20;82.70;;;;;;5048152;28;20227;-66
2022/03/28 02:50:45;;;;;;;11.00;4.57;;;3.10;83.10;;;;;;5048672;28;20189;-66
2022/03/28 02:53:11;;;;;;;10.80;3.53;;;3.10;83.10;;;;;;5047750;28;20228;-67
2022/03/28 02:55:38;;;;;;;15.63;4.83;;;3.10;83.60;;;;;;5048577;28;20522;-66
2022/03/28 02:58:04;;;;;;;11.43;5.57;;;3.00;83.90;;;;;;5048578;28;20466;-66
2022/03/28 03:00:30;;;;;;;11.13;4.57;;;3.00;83.90;;;;;;5047978;28;20437;-67
2022/03/28 03:02:56;;;;;;;8.00;3.60;;;3.00;84.40;;;;;;5048210;28;20478;-67
2022/03/28 03:05:23;;;;;;;7.57;3.40;;;3.00;84.70;;;;;;5048317;28;20828;-66
2022/03/28 03:07:49;;;;;;;14.30;4.50;;;3.10;84.70;;;;;;5047635;28;20632;-67
2022/03/28 03:10:15;;;;;;;14.03;4.53;;;3.00;84.10;;;;;;5048027;28;20485;-67
2022/03/28 03:12:41;;;;;;;9.90;4.33;;;2.90;84.10;;;;;;5043584;28;20428;-67
2022/03/28 03:15:07;;;;;;;11.67;4.00;;;2.80;84.20;;;;;;5047349;28;20421;-66
2022/03/28 03:17:33;;;;;;;8.50;3.90;;;2.80;85.50;;;;;;5047319;28;20221;-66
2022/03/28 03:19:58;;;;;;;12.93;4.43;;;2.80;85.30;;;;;;5047736;28;20930;-67
2022/03/28 03:22:24;;;;;;;16.47;5.40;;;2.80;85.40;;;;;;5047573;28;20181;-67
2022/03/28 03:24:50;;;;;;;15.27;5.80;;;2.80;85.60;;;;;;5048304;28;20196;-67
2022/03/28 03:27:15;;;;;;;11.30;5.17;;;2.80;85.30;;;;;;5048193;28;20181;-67
2022/03/28 03:29:41;;;;;;;8.30;4.20;;;2.80;85.50;;;;;;5046558;28;20204;-67
2022/03/28 03:32:07;;;;;;;10.77;4.20;;;2.70;85.60;;;;;;5047867;28;20188;-67
2022/03/28 03:34:34;;;;;;;10.13;4.03;;;2.70;85.60;;;;;;5047494;28;20186;-67
2022/03/28 03:37:00;;;;;;;7.20;3.97;;;2.80;85.90;;;;;;5047355;28;20542;-67
2022/03/28 03:39:26;;;;;;;11.97;5.30;;;2.70;85.70;;;;;;5046939;28;20431;-67
2022/03/28 03:41:53;;;;;;;13.03;4.57;;;2.60;85.70;;;;;;5047946;28;20423;-67
2022/03/28 03:44:19;;;;;;;10.97;4.93;;;2.70;86.30;;;;;;5047510;28;20428;-67
2022/03/28 03:46:45;;;;;;;28.63;4.17;;;2.70;86.20;;;;;;5048803;28;20423;-67
2022/03/28 03:49:11;;;;;;;16.90;5.03;;;2.70;85.60;;;;;;5047026;28;20416;-67
2022/03/28 03:51:37;;;;;;;8.00;4.07;;;2.70;85.80;;;;;;5047349;28;20423;-67
2022/03/28 03:54:03;;;;;;;17.80;4.13;;;2.60;85.80;;;;;;5046724;28;20420;-67
2022/03/28 03:56:29;;;;;;;10.00;4.40;;;2.50;86.00;;;;;;5047781;28;20544;-67
2022/03/28 03:58:56;;;;;;;11.00;3.87;;;2.50;86.20;;;;;;5046874;28;20460;-67
2022/03/28 04:01:22;;;;;;;15.40;5.40;;;2.50;86.30;;;;;;5046967;28;20816;-67
2022/03/28 04:03:48;;;;;;;13.17;5.43;;;2.50;86.60;;;;;;5046758;28;20515;-67
2022/03/28 04:06:14;;;;;;;12.60;4.83;;;2.60;86.10;;;;;;5047451;28;20259;-66
2022/03/28 04:08:40;;;;;;;7.73;3.47;;;2.50;86.10;;;;;;5052699;28;20242;-67
2022/03/28 04:11:06;;;;;;;12.77;5.10;;;2.30;86.30;;;;;;5047139;28;20196;-66
2022/03/28 04:13:33;;;;;;;13.53;5.07;;;2.30;86.90;;;;;;5046980;28;20181;-67
2022/03/28 04:15:59;;;;;;;14.43;5.33;;;2.30;87.20;;;;;;5045753;28;20460;-66
2022/03/28 04:18:25;;;;;;;11.50;4.60;;;2.20;87.60;;;;;;5046291;28;21191;-66
2022/03/28 04:20:52;;;;;;;13.43;5.07;;;2.20;87.20;;;;;;5046802;28;20186;-67
2022/03/28 04:23:18;;;;;;;12.93;5.03;;;2.20;87.40;;;;;;5046539;28;20420;-67
2022/03/28 04:25:44;;;;;;;13.93;5.57;;;2.20;87.90;;;;;;5046219;28;20428;-66
2022/03/28 04:28:10;;;;;;;17.93;4.27;;;2.20;88.30;;;;;;5046488;28;20694;-66
2022/03/28 04:30:36;;;;;;;13.17;4.57;;;2.20;88.50;;;;;;5046339;28;20588;-66
2022/03/28 04:33:03;;;;;;;11.77;5.20;;;2.20;88.40;;;;;;5046838;28;20188;-67
2022/03/28 04:35:29;;;;;;;11.17;4.50;;;2.30;88.60;;;;;;5046566;28;20909;-66
2022/03/28 04:37:55;;;;;;;10.67;4.57;;;2.30;88.40;;;;;;5046050;28;20436;-66
2022/03/28 04:40:20;;;;;;;5.97;3.03;;;2.30;88.30;;;;;;5046224;28;20440;-66
2022/03/28 04:42:48;;;;;;;13.73;4.80;;;2.30;88.40;;;;;;5046734;28;20185;-66
2022/03/28 04:45:14;;;;;;;9.40;4.17;;;2.30;88.90;;;;;;5046602;28;20213;-66
2022/03/28 04:47:40;;;;;;;8.20;3.80;;;2.40;89.00;;;;;;5046327;28;20466;-66
2022/03/28 04:50:07;;;;;;;17.20;5.27;;;2.40;89.00;;;;;;5045980;28;20798;-66
2022/03/28 04:52:34;;;;;;;9.00;4.20;;;2.50;89.70;;;;;;5046085;28;20431;-66
2022/03/28 04:55:00;;;;;;;15.80;4.67;;;2.60;89.60;;;;;;5046926;28;20436;-66
2022/03/28 04:57:25;;;;;;;32.47;4.70;;;2.60;89.60;;;;;;5046692;28;20529;-67
2022/03/28 04:59:51;;;;;;;12.10;4.13;;;2.60;90.10;;;;;;5046137;28;20515;-66
2022/03/28 05:02:17;;;;;;;13.77;5.00;;;2.70;90.10;;;;;;5047194;28;20186;-66
2022/03/28 05:04:43;;;;;;;10.63;4.70;;;2.60;89.90;;;;;;5046541;28;20185;-67
2022/03/28 05:07:08;;;;;;;11.67;4.87;;;2.60;90.10;;;;;;5046523;28;20204;-67
2022/03/28 05:09:34;;;;;;;11.17;5.40;;;2.70;90.10;;;;;;5044965;28;20213;-66
2022/03/28 05:12:00;;;;;;;11.10;5.57;;;2.70;90.10;;;;;;5046619;28;20728;-66
2022/03/28 05:14:25;;;;;;;8.90;5.00;;;2.70;90.00;;;;;;5046128;28;20265;-66
2022/03/28 05:16:51;;;;;;;15.90;5.03;;;2.70;90.10;;;;;;5047048;28;20276;-66
2022/03/28 05:19:17;;;;;;;16.27;5.53;;;2.70;90.10;;;;;;5045790;28;20261;-66
2022/03/28 05:21:42;;;;;;;10.53;4.70;;;2.80;90.20;;;;;;5046763;28;20182;-66
2022/03/28 05:24:08;;;;;;;16.73;5.37;;;2.80;90.00;;;;;;5046115;28;20234;-67
2022/03/28 05:26:34;;;;;;;13.43;5.87;;;2.90;89.90;;;;;;5037985;28;20217;-66
2022/03/28 05:29:00;;;;;;;12.30;5.70;;;3.00;89.90;;;;;;5045775;28;20186;-67
2022/03/28 05:31:26;;;;;;;14.73;4.87;;;3.00;89.40;;;;;;5046226;28;20268;-66
2022/03/28 05:33:51;;;;;;;17.33;4.87;;;3.10;89.50;;;;;;5045894;28;20555;-66
2022/03/28 05:36:18;;;;;;;16.20;6.83;;;3.20;89.60;;;;;;5046046;28;20201;-67
2022/03/28 05:38:44;;;;;;;16.33;5.80;;;3.20;89.40;;;;;;5043793;28;20270;-67
2022/03/28 05:41:10;;;;;;;17.30;5.00;;;3.30;89.10;;;;;;5049896;28;20427;-67
2022/03/28 05:43:36;;;;;;;13.30;4.90;;;3.30;89.00;;;;;;5049681;28;20492;-66
2022/03/28 05:46:03;;;;;;;23.77;6.10;;;3.30;89.10;;;;;;5049953;28;20201;-67
2022/03/28 05:48:29;;;;;;;14.40;5.23;;;3.40;89.00;;;;;;5049186;28;20831;-66
2022/03/28 05:50:54;;;;;;;13.20;5.40;;;3.40;88.80;;;;;;5050262;28;20419;-67
2022/03/28 05:53:20;;;;;;;18.80;5.47;;;3.50;88.90;;;;;;5049216;28;20424;-67
2022/03/28 05:55:46;;;;;;;9.57;4.60;;;3.50;88.60;;;;;;5049739;28;20208;-67
2022/03/28 05:58:12;;;;;;;10.50;5.40;;;3.60;88.20;;;;;;5049085;28;20174;-67
2022/03/28 06:00:38;;;;;;;17.80;5.47;;;3.70;88.60;;;;;;5049585;28;20194;-67
2022/03/28 06:03:04;;;;;;;18.93;5.33;;;3.70;88.20;;;;;;5049627;28;20250;-66
2022/03/28 06:05:31;;;;;;;14.97;5.43;;;3.80;88.20;;;;;;5050106;28;20507;-67
2022/03/28 06:07:57;;;;;;;11.63;5.40;;;3.80;88.00;;;;;;5048764;28;20534;-67
2022/03/28 06:10:23;;;;;;;13.43;5.27;;;3.90;88.10;;;;;;5049021;28;20808;-67
2022/03/28 06:12:49;;;;;;;11.97;5.77;;;4.00;87.90;;;;;;5048312;28;20428;-67
2022/03/28 06:15:15;;;;;;;10.30;5.30;;;4.00;87.70;;;;;;5048935;28;20174;-67
2022/03/28 06:17:43;;;;;;;11.93;5.33;;;4.10;87.60;;;;;;5049134;28;20216;-67
2022/03/28 06:20:10;;;;;;;14.33;5.80;;;4.30;87.00;;;;;;5048605;28;20447;-67
2022/03/28 06:22:36;;;;;;;10.80;5.53;;;4.40;86.80;;;;;;5048613;28;20833;-67
2022/03/28 06:25:03;;;;;;;9.77;4.73;;;4.50;86.10;;;;;;5048442;28;20474;-67
2022/03/28 06:27:29;;;;;;;15.60;5.97;;;4.60;85.60;;;;;;5049222;28;20192;-67
2022/03/28 06:29:54;;;;;;;38.40;6.23;;;4.80;85.00;;;;;;5048868;28;20428;-67
2022/03/28 06:32:20;;;;;;;18.73;5.60;;;5.00;84.10;;;;;;5049403;28;20435;-67
2022/03/28 06:34:48;;;;;;;18.67;6.17;;;5.10;83.40;;;;;;5047217;28;20268;-67
2022/03/28 06:37:15;;;;;;;11.30;5.20;;;5.40;83.40;;;;;;5048177;28;20204;-67
2022/03/28 06:39:41;;;;;;;11.93;5.10;;;5.50;82.70;;;;;;5048388;28;20442;-67
2022/03/28 06:42:07;;;;;;;19.13;6.50;;;5.60;82.30;;;;;;5045972;28;20424;-67
2022/03/28 06:44:33;;;;;;;17.57;5.90;;;5.80;81.90;;;;;;5048478;28;20424;-67
2022/03/28 06:46:59;;;;;;;19.10;6.30;;;6.00;81.50;;;;;;5048983;28;20987;-67
2022/03/28 06:49:25;;;;;;;15.90;6.60;;;6.20;81.20;;;;;;5048091;28;20204;-66
2022/03/28 06:51:50;;;;;;;18.63;7.53;;;6.40;80.20;;;;;;5048504;28;20224;-68
2022/03/28 06:54:19;;;;;;;23.13;6.67;;;6.80;78.80;;;;;;5049528;28;20268;-67
2022/03/28 06:56:46;;;;;;;18.47;6.20;;;6.90;78.80;;;;;;5048299;28;20297;-69
2022/03/28 06:59:12;;;;;;;32.10;7.73;;;7.10;77.80;;;;;;5044234;28;20819;-67
2022/03/28 07:01:39;;;;;;;15.13;5.40;;;7.50;77.00;;;;;;5047306;28;20431;-67
2022/03/28 07:04:05;;;;;;;15.60;5.63;;;7.70;76.30;;;;;;5046053;28;20529;-67
2022/03/28 07:06:31;;;;;;;11.43;5.10;;;8.00;75.10;;;;;;5046884;28;20439;-67
2022/03/28 07:08:56;;;;;;;21.03;5.77;;;8.10;74.70;;;;;;5045673;28;20838;-67
2022/03/28 07:11:22;;;;;;;21.60;6.30;;;8.30;74.40;;;;;;5047168;28;20656;-67
2022/03/28 07:13:48;;;;;;;15.10;6.13;;;8.50;73.70;;;;;;5045874;28;20185;-67
2022/03/28 07:16:13;;;;;;;16.40;6.83;;;8.80;72.80;;;;;;5042156;28;20193;-68
2022/03/28 07:18:41;;;;;;;12.55;5.93;;;9.20;71.50;;;;;;5044963;28;20400;-68
2022/03/28 07:21:07;;;;;;;18.83;5.87;;;9.70;70.90;;;;;;5044528;28;20178;-67
2022/03/28 07:23:32;;;;;;;16.60;6.37;;;10.60;67.60;;;;;;5044308;28;20416;-68
2022/03/28 07:25:58;;;;;;;17.47;6.50;;;11.40;63.50;;;;;;5039133;28;20178;-67
2022/03/28 07:28:23;;;;;;;24.23;7.93;;;11.90;60.50;;;;;;5040496;28;20191;-67
2022/03/28 07:30:49;;;;;;;15.00;6.80;;;12.60;58.10;;;;;;5044305;28;20181;-67
2022/03/28 07:33:15;;;;;;;18.73;7.73;;;13.40;56.20;;;;;;5044589;28;20268;-68
2022/03/28 07:35:41;;;;;;;27.83;8.57;;;14.00;55.20;;;;;;5042214;28;20213;-68
2022/03/28 07:38:08;;;;;;;10.87;5.77;;;14.70;53.20;;;;;;5043241;28;20857;-68
2022/03/28 07:40:38;;;;;;;15.00;6.53;;;14.70;52.80;;;;;;5044225;28;20412;-68
2022/03/28 07:43:04;;;;;;;19.27;6.50;;;15.50;52.40;;;;;;5045403;28;20900;-68
2022/03/28 07:45:30;;;;;;;18.53;6.80;;;16.00;51.80;;;;;;5041855;28;20515;-69
2022/03/28 07:47:57;;;;;;;34.43;9.53;;;16.60;50.40;;;;;;5044034;28;20421;-68
2022/03/28 07:50:24;;;;;;;21.37;8.20;;;16.80;49.70;;;;;;5042624;28;20445;-68
2022/03/28 07:52:50;;;;;;;22.67;8.10;;;17.60;48.80;;;;;;5043536;28;20460;-69
2022/03/28 07:55:17;;;;;;;32.90;8.43;;;18.20;48.10;;;;;;5039490;28;20178;-67
2022/03/28 07:57:43;;;;;;;16.00;5.93;;;18.70;47.40;;;;;;5042330;28;20479;-68
2022/03/28 08:00:13;;;;;;;15.87;6.93;;;18.90;46.40;;;;;;5040914;28;20519;-68
2022/03/28 08:02:39;;;;;;;17.07;6.60;;;18.60;46.30;;;;;;5039819;28;20424;-68
2022/03/28 08:05:07;;;;;;;17.60;6.57;;;19.20;45.60;;;;;;5045702;28;20439;-68
2022/03/28 08:07:33;;;;;;;14.23;6.90;;;19.00;46.30;;;;;;5044915;28;20534;-68
2022/03/28 08:09:59;;;;;;;14.13;6.97;;;18.70;46.10;;;;;;5045231;28;20892;-68
2022/03/28 08:12:25;;;;;;;16.10;6.57;;;19.30;45.30;;;;;;5045751;28;20454;-69
2022/03/28 08:14:51;;;;;;;20.30;8.30;;;19.40;45.00;;;;;;5042603;28;20193;-68
2022/03/28 08:17:19;;;;;;;15.93;8.37;;;19.30;46.60;;;;;;5045638;28;20729;-68
2022/03/28 08:19:45;;;;;;;20.70;7.07;;;19.60;44.80;;;;;;5042155;28;20503;-68
2022/03/28 08:22:10;;;;;;;10.43;6.27;;;19.10;45.70;;;;;;5038293;28;20427;-68
2022/03/28 08:24:36;;;;;;;14.90;7.20;;;19.30;46.10;;;;;;5043246;28;20512;-69
2022/03/28 08:27:02;;;;;;;20.23;8.57;;;19.40;45.50;;;;;;5044365;28;20192;-67
2022/03/28 08:29:27;;;;;;;18.00;7.30;;;19.60;45.50;;;;;;5044113;28;20200;-68
2022/03/28 08:31:53;;;;;;;19.90;7.73;;;19.00;45.80;;;;;;5047016;28;20901;-68
2022/03/28 08:34:19;;;;;;;13.00;6.67;;;19.70;44.40;;;;;;5044811;28;20196;-68
2022/03/28 08:36:45;;;;;;;19.43;8.07;;;20.10;45.00;;;;;;5045662;28;20683;-68
2022/03/28 08:39:11;;;;;;;15.73;6.70;;;20.10;44.40;;;;;;5045105;28;20423;-68
2022/03/28 08:41:37;;;;;;;16.53;7.43;;;20.00;44.90;;;;;;5045940;28;20442;-68
2022/03/28 08:44:04;;;;;;;17.03;7.70;;;20.40;44.90;;;;;;5046908;28;20182;-68
2022/03/28 08:46:30;;;;;;;16.77;7.23;;;20.80;43.50;;;;;;5046843;28;20223;-69
2022/03/28 08:48:59;;;;;;;15.90;6.97;;;21.00;42.90;;;;;;5050698;28;20423;-69
2022/03/28 08:51:27;;;;;;;14.97;6.50;;;20.60;44.00;;;;;;5056268;28;20457;-69
2022/03/28 08:53:53;;;;;;;12.37;5.97;;;20.40;42.90;;;;;;5049224;28;20431;-68
2022/03/28 08:56:19;;;;;;;15.43;7.10;;;20.80;43.30;;;;;;5048404;28;20516;-68
2022/03/28 08:58:45;;;;;;;11.30;6.27;;;20.10;44.40;;;;;;5058895;28;20423;-68
2022/03/28 09:01:11;;;;;;;18.97;6.50;;;20.50;43.80;;;;;;5052480;28;20579;-69
2022/03/28 09:03:41;;;;;;;17.67;7.40;;;20.80;43.90;;;;;;5045850;28;20181;-68
2022/03/28 09:06:32;;;;;;;17.00;6.40;;;20.30;43.90;;;;;;5046460;28;20239;-68
2022/03/28 09:09:22;;;;;;;22.10;7.03;;;20.20;44.50;;;;;;5044708;28;20427;-69
2022/03/28 09:11:47;;;;;;;14.03;6.63;;;20.20;44.50;;;;;;5041268;28;20446;-68
2022/03/28 09:14:23;;;;;;;19.97;8.00;;;20.50;43.60;;;;;;5046704;28;20873;-68
2022/03/28 09:17:02;;;;;;;15.50;7.57;;;20.40;45.20;;;;;;5049434;28;20236;-68
2022/03/28 09:19:42;;;;;;;27.30;6.50;;;20.30;44.10;;;;;;5048907;28;20507;-69
2022/03/28 09:22:13;;;;;;;16.17;6.40;;;20.40;44.60;;;;;;5047866;28;20407;-68
2022/03/28 09:24:39;;;;;;;15.70;6.33;;;20.40;44.20;;;;;;5048161;28;20446;-68
2022/03/28 09:27:19;;;;;;;13.03;6.13;;;20.50;45.10;;;;;;5048625;28;21067;-68
2022/03/28 09:30:03;;;;;;;20.10;7.83;;;20.50;45.20;;;;;;5048506;28;20184;-68
2022/03/28 09:32:31;;;;;;;14.43;7.10;;;20.40;44.10;;;;;;5044951;28;20423;-68
2022/03/28 09:35:20;;;;;;;19.77;7.60;;;20.40;45.10;;;;;;5046491;28;20435;-68
2022/03/28 09:38:04;;;;;;;22.20;7.23;;;20.50;45.10;;;;;;5047093;28;20834;-68
2022/03/28 09:40:34;;;;;;;15.83;6.43;;;20.60;44.70;;;;;;5043034;28;20506;-68
2022/03/28 09:43:02;;;;;;;20.43;8.13;;;20.70;44.50;;;;;;5048428;28;20458;-68
2022/03/28 09:45:32;;;;;;;13.77;6.00;;;20.80;45.00;;;;;;5048682;28;20474;-68
2022/03/28 09:48:02;;;;;;;13.67;5.57;;;21.20;43.10;;;;;;5047786;28;20939;-68
2022/03/28 09:50:40;;;;;;;26.90;5.73;;;20.80;44.30;;;;;;5043534;28;20438;-68
2022/03/28 09:53:27;;;;;;;15.50;6.00;;;20.60;45.30;;;;;;5048311;28;20423;-68
2022/03/28 09:55:56;;;;;;;11.80;6.70;;;20.30;45.60;;;;;;5048748;28;21144;-68
2022/03/28 09:58:32;;;;;;;16.60;7.60;;;20.30;44.60;;;;;;5048790;28;20450;-68
2022/03/28 10:00:58;;;;;;;17.73;6.67;;;20.30;44.60;;;;;;5047996;28;20844;-67
2022/03/28 10:03:23;;;;;;;16.43;7.17;;;20.00;44.90;;;;;;5047826;28;21050;-67
2022/03/28 10:05:50;;;;;;;21.67;7.70;;;20.10;44.20;;;;;;5046021;28;20186;-67
2022/03/28 10:08:15;;;;;;;20.63;6.87;;;19.90;43.20;;;;;;5046051;28;20186;-68
2022/03/28 10:10:41;;;;;;;15.87;7.43;;;19.60;44.40;;;;;;5048088;28;21036;-68
2022/03/28 10:13:08;;;;;;;19.30;6.93;;;19.60;44.70;;;;;;5047633;28;20688;-68
2022/03/28 10:15:33;;;;;;;19.40;7.30;;;19.60;42.10;;;;;;5047656;28;20195;-68
2022/03/28 10:17:59;;;;;;;15.87;7.40;;;19.60;42.60;;;;;;5048046;28;20463;-68
2022/03/28 10:20:25;;;;;;;15.30;6.20;;;19.60;41.70;;;;;;5048055;28;20248;-67
2022/03/28 10:22:54;;;;;;;19.67;7.27;;;19.70;43.60;;;;;;5047400;28;21035;-67
2022/03/28 10:25:22;;;;;;;14.37;6.40;;;19.90;39.50;;;;;;5045265;28;20193;-67
2022/03/28 10:27:51;;;;;;;17.60;7.33;;;19.80;41.90;;;;;;5047691;28;20428;-67
2022/03/28 10:30:22;;;;;;;20.13;7.13;;;19.90;42.10;;;;;;5047871;28;20494;-67
2022/03/28 10:33:09;;;;;;;17.80;6.17;;;19.80;40.60;;;;;;5047441;28;20440;-67
2022/03/28 10:35:35;;;;;;;19.43;8.53;;;19.90;40.80;;;;;;5047111;28;20420;-68
2022/03/28 10:38:16;;;;;;;21.77;8.10;;;19.80;40.80;;;;;;5046948;28;21011;-67
2022/03/28 10:41:01;;;;;;;15.13;7.00;;;20.00;40.90;;;;;;5047381;28;20420;-67
2022/03/28 10:43:29;;;;;;;15.10;6.73;;;20.10;40.10;;;;;;5047853;28;20586;-67
2022/03/28 10:45:56;;;;;;;14.80;6.90;;;20.00;38.00;;;;;;5047597;28;20423;-67
2022/03/28 10:49:00;;;;;;;22.33;8.60;;;20.10;39.30;;;;;;5047662;28;20426;-67
2022/03/28 10:51:29;;;;;;;13.93;5.60;;;20.00;38.50;;;;;;5037980;28;20534;-67
2022/03/28 10:54:06;;;;;;;19.33;8.20;;;20.00;39.50;;;;;;5045841;28;20971;-67
2022/03/28 10:56:32;;;;;;;20.77;7.33;;;20.20;40.60;;;;;;5038587;28;20470;-68
2022/03/28 10:59:06;;;;;;;18.47;8.80;;;20.30;40.00;;;;;;5044773;28;20466;-70
2022/03/28 11:01:33;;;;;;;14.93;7.10;;;20.30;41.60;;;;;;5042605;28;20205;-70
2022/03/28 11:04:01;;;;;;;15.87;6.03;;;20.50;39.70;;;;;;5042079;28;20425;-70
2022/03/28 11:07:00;;;;;;;15.17;6.70;;;20.50;40.30;;;;;;5043958;28;20433;-70
2022/03/28 11:09:45;;;;;;;15.20;6.13;;;20.40;40.50;;;;;;5021339;28;21081;-70
2022/03/28 11:12:12;;;;;;;16.23;7.33;;;20.50;41.10;;;;;;5042974;28;21209;-70
2022/03/28 11:14:44;;;;;;;15.00;6.83;;;20.30;39.90;;;;;;5041199;28;20425;-70
2022/03/28 11:17:23;;;;;;;31.20;7.10;;;20.40;39.70;;;;;;5046254;28;20534;-70
2022/03/28 11:20:14;;;;;;;19.97;7.90;;;20.20;39.50;;;;;;5041817;28;20412;-70
2022/03/28 11:22:49;;;;;;;20.77;8.30;;;20.40;41.30;;;;;;5043246;28;20444;-70
2022/03/28 11:25:27;;;;;;;22.07;8.13;;;20.60;40.00;;;;;;5041409;28;20412;-70
2022/03/28 11:28:13;;;;;;;16.27;6.73;;;20.70;40.60;;;;;;5043797;28;20431;-70
2022/03/28 11:30:48;;;;;;;14.93;6.90;;;20.90;38.60;;;;;;5043843;28;20424;-70
2022/03/28 11:33:17;;;;;;;15.50;6.23;;;20.90;38.10;;;;;;5044166;28;20451;-70
2022/03/28 11:36:01;;;;;;;21.40;7.77;;;20.90;40.60;;;;;;5041580;28;20468;-70
2022/03/28 11:38:31;;;;;;;18.80;6.73;;;20.90;40.40;;;;;;5042786;28;20416;-70
2022/03/28 11:40:57;;;;;;;29.73;6.30;;;20.90;40.00;;;;;;5044242;28;20428;-70
2022/03/28 11:43:31;;;;;;;12.90;6.03;;;21.00;39.30;;;;;;5030672;28;20791;-68
2022/03/28 11:45:58;;;;;;;17.73;7.23;;;20.90;38.00;;;;;;5047718;28;20889;-69
2022/03/28 11:48:24;;;;;;;18.23;7.17;;;21.20;38.30;;;;;;5047372;28;20912;-71
2022/03/28 11:50:50;;;;;;;16.17;6.70;;;21.20;39.50;;;;;;5047623;28;20430;-69
2022/03/28 11:53:18;;;;;;;14.63;6.57;;;21.20;37.80;;;;;;5047521;28;20213;-69
2022/03/28 11:55:54;;;;;;;18.07;7.00;;;21.30;38.50;;;;;;5048180;28;20827;-69
2022/03/28 11:58:33;;;;;;;14.83;6.97;;;21.50;37.70;;;;;;5047669;28;20903;-68
2022/03/28 12:01:10;;;;;;;19.57;7.57;;;21.70;38.30;;;;;;5048152;28;20518;-69
2022/03/28 12:03:57;;;;;;;22.67;6.50;;;21.50;38.30;;;;;;5047763;28;20423;-69
2022/03/28 12:06:28;;;;;;;17.80;6.43;;;21.40;37.00;;;;;;5042196;28;20439;-70
2022/03/28 12:08:54;;;;;;;17.83;6.33;;;21.60;37.00;;;;;;5046736;28;20466;-69
2022/03/28 12:11:20;;;;;;;16.80;6.90;;;21.70;37.80;;;;;;5047651;28;20549;-69
2022/03/28 12:13:46;;;;;;;14.80;5.83;;;21.50;38.60;;;;;;5047581;28;20518;-69
2022/03/28 12:16:11;;;;;;;11.33;5.27;;;21.30;37.60;;;;;;5047672;28;20209;-69
2022/03/28 12:18:37;;;;;;;7.20;3.90;;;21.40;36.10;;;;;;5047240;28;20246;-69
2022/03/28 12:21:03;;;;;;;7.37;3.77;;;21.20;36.90;;;;;;5047642;28;20189;-69
2022/03/28 12:23:28;;;;;;;12.10;5.10;;;21.40;37.70;;;;;;5045884;28;20201;-69
2022/03/28 12:25:59;;;;;;;7.73;4.37;;;21.30;36.90;;;;;;5042063;28;20181;-68
2022/03/28 12:28:24;;;;;;;14.73;4.77;;;21.30;38.10;;;;;;5043281;28;20787;-69
2022/03/28 12:30:53;;;;;;;7.77;3.93;;;21.50;35.40;;;;;;5040542;28;20416;-69
2022/03/28 12:33:27;;;;;;;13.00;5.03;;;21.60;37.50;;;;;;5042858;28;20177;-69
2022/03/28 12:36:04;;;;;;;8.27;4.10;;;21.70;37.00;;;;;;5047016;28;20542;-68
2022/03/28 12:38:41;;;;;;;7.17;4.53;;;21.60;37.10;;;;;;5042654;28;20446;-68
2022/03/28 12:41:12;;;;;;;11.43;4.70;;;21.60;36.40;;;;;;5046945;28;20408;-67
2022/03/28 12:43:45;;;;;;;14.77;5.20;;;21.30;37.00;;;;;;5047062;28;20895;-70
2022/03/28 12:46:10;;;;;;;8.90;4.80;;;21.20;37.90;;;;;;5044658;28;20420;-70
2022/03/28 12:48:51;;;;;;;9.07;3.90;;;21.00;37.00;;;;;;5044175;28;20438;-70